Terminal Aerodrome Forecast
Issued by NWS Cleveland, OH

Home | Current Version | Previous Version | Graphics & Text | Print | Product List | Glossary Off
Versions: 1 2 3 4 5 6 7 8 9 10 11 12 13 14 15 16 17 18 19 20 21

000
FTUS41 KCLE 011127
TAFYNG
TAF
KYNG 011127Z 0112/0212 36008KT 3SM BR OVC005
     FM011400 03010KT P6SM OVC012
     FM012200 03010KT P6SM OVC025
     FM020300 03005KT P6SM BKN050 OVC250
     FM020900 03005KT P6SM OVC250=

USA.gov is the U.S. government's official web portal to all federal, state and local government web resources and services.